sensor_id;sensor_type;location;lat;lon;timestamp;temperature;humidity
27226;DHT22;14732;51.074;3.788;2022-11-24T00:00:25;10.10;99.90
27226;DHT22;14732;51.074;3.788;2022-11-24T00:02:51;10.20;99.90
27226;DHT22;14732;51.074;3.788;2022-11-24T00:05:16;10.30;99.90
27226;DHT22;14732;51.074;3.788;2022-11-24T00:07:42;10.30;99.90
27226;DHT22;14732;51.074;3.788;2022-11-24T00:10:08;10.30;99.90
27226;DHT22;14732;51.074;3.788;2022-11-24T00:12:34;10.20;99.90
27226;DHT22;14732;51.074;3.788;2022-11-24T00:14:59;10.20;99.90
27226;DHT22;14732;51.074;3.788;2022-11-24T00:17:25;10.20;99.90
27226;DHT22;14732;51.074;3.788;2022-11-24T00:19:50;10.20;99.90
27226;DHT22;14732;51.074;3.788;2022-11-24T00:22:16;10.30;99.90
27226;DHT22;14732;51.074;3.788;2022-11-24T00:24:42;10.30;99.90
27226;DHT22;14732;51.074;3.788;2022-11-24T00:27:07;10.20;99.90
27226;DHT22;14732;51.074;3.788;2022-11-24T00:29:33;10.20;99.90
27226;DHT22;14732;51.074;3.788;2022-11-24T00:31:59;10.20;99.90
27226;DHT22;14732;51.074;3.788;2022-11-24T00:34:26;10.30;99.90
27226;DHT22;14732;51.074;3.788;2022-11-24T00:36:52;10.30;99.90
27226;DHT22;14732;51.074;3.788;2022-11-24T00:39:18;10.40;99.90
27226;DHT22;14732;51.074;3.788;2022-11-24T00:41:43;10.50;99.90
27226;DHT22;14732;51.074;3.788;2022-11-24T00:44:09;10.40;99.90
27226;DHT22;14732;51.074;3.788;2022-11-24T00:46:35;10.50;99.90
27226;DHT22;14732;51.074;3.788;2022-11-24T00:49:00;10.40;99.90
27226;DHT22;14732;51.074;3.788;2022-11-24T00:51:27;10.50;99.90
27226;DHT22;14732;51.074;3.788;2022-11-24T00:53:58;10.50;99.90
27226;DHT22;14732;51.074;3.788;2022-11-24T00:56:24;10.50;99.90
27226;DHT22;14732;51.074;3.788;2022-11-24T00:58:50;10.50;99.90
27226;DHT22;14732;51.074;3.788;2022-11-24T01:01:19;10.40;99.90
27226;DHT22;14732;51.074;3.788;2022-11-24T01:03:45;10.60;99.90
27226;DHT22;14732;51.074;3.788;2022-11-24T01:06:14;10.60;99.90
27226;DHT22;14732;51.074;3.788;2022-11-24T01:08:40;10.50;99.90
27226;DHT22;14732;51.074;3.788;2022-11-24T01:11:11;10.40;99.90
27226;DHT22;14732;51.074;3.788;2022-11-24T01:13:37;10.50;99.90
27226;DHT22;14732;51.074;3.788;2022-11-24T01:16:03;10.50;99.90
27226;DHT22;14732;51.074;3.788;2022-11-24T01:18:29;10.60;99.90
27226;DHT22;14732;51.074;3.788;2022-11-24T01:20:55;10.70;99.90
27226;DHT22;14732;51.074;3.788;2022-11-24T01:23:20;10.60;99.90
27226;DHT22;14732;51.074;3.788;2022-11-24T01:25:46;10.60;99.90
27226;DHT22;14732;51.074;3.788;2022-11-24T01:28:12;10.80;99.90
27226;DHT22;14732;51.074;3.788;2022-11-24T01:30:38;10.70;99.90
27226;DHT22;14732;51.074;3.788;2022-11-24T01:33:04;10.60;99.90
27226;DHT22;14732;51.074;3.788;2022-11-24T01:35:29;10.60;99.90
27226;DHT22;14732;51.074;3.788;2022-11-24T01:37:55;10.80;99.90
27226;DHT22;14732;51.074;3.788;2022-11-24T01:40:21;10.80;99.90
27226;DHT22;14732;51.074;3.788;2022-11-24T01:42:50;10.90;99.90
27226;DHT22;14732;51.074;3.788;2022-11-24T01:45:33;10.90;99.90
27226;DHT22;14732;51.074;3.788;2022-11-24T01:48:01;10.70;99.90
27226;DHT22;14732;51.074;3.788;2022-11-24T01:50:28;10.70;99.90
27226;DHT22;14732;51.074;3.788;2022-11-24T01:52:54;10.80;99.90
27226;DHT22;14732;51.074;3.788;2022-11-24T01:55:31;10.80;99.90
27226;DHT22;14732;51.074;3.788;2022-11-24T01:58:04;10.70;99.90
27226;DHT22;14732;51.074;3.788;2022-11-24T02:00:30;10.70;99.90
27226;DHT22;14732;51.074;3.788;2022-11-24T02:02:57;10.50;99.90
27226;DHT22;14732;51.074;3.788;2022-11-24T02:05:27;10.60;99.90
27226;DHT22;14732;51.074;3.788;2022-11-24T02:07:56;10.70;99.90
27226;DHT22;14732;51.074;3.788;2022-11-24T02:10:23;10.60;99.90
27226;DHT22;14732;51.074;3.788;2022-11-24T02:12:51;10.60;99.90
27226;DHT22;14732;51.074;3.788;2022-11-24T02:15:19;10.40;99.90
27226;DHT22;14732;51.074;3.788;2022-11-24T02:17:45;10.10;99.90
27226;DHT22;14732;51.074;3.788;2022-11-24T02:20:11;10.20;99.90
27226;DHT22;14732;51.074;3.788;2022-11-24T02:22:59;10.00;99.90
27226;DHT22;14732;51.074;3.788;2022-11-24T02:25:34;9.90;99.90
27226;DHT22;14732;51.074;3.788;2022-11-24T02:28:05;9.70;99.90
27226;DHT22;14732;51.074;3.788;2022-11-24T02:30:31;9.80;99.90
27226;DHT22;14732;51.074;3.788;2022-11-24T02:32:57;9.60;99.90
27226;DHT22;14732;51.074;3.788;2022-11-24T02:35:26;9.40;99.90
27226;DHT22;14732;51.074;3.788;2022-11-24T02:37:51;9.40;99.90
27226;DHT22;14732;51.074;3.788;2022-11-24T02:40:22;9.40;99.90
27226;DHT22;14732;51.074;3.788;2022-11-24T02:42:55;9.50;99.90
27226;DHT22;14732;51.074;3.788;2022-11-24T02:45:22;9.50;99.90
27226;DHT22;14732;51.074;3.788;2022-11-24T02:47:49;9.50;99.90
27226;DHT22;14732;51.074;3.788;2022-11-24T02:50:14;9.70;99.90
27226;DHT22;14732;51.074;3.788;2022-11-24T02:52:40;9.60;99.90
27226;DHT22;14732;51.074;3.788;2022-11-24T02:55:06;9.60;99.90
27226;DHT22;14732;51.074;3.788;2022-11-24T02:57:32;9.80;99.90
27226;DHT22;14732;51.074;3.788;2022-11-24T02:59:57;9.70;99.90
27226;DHT22;14732;51.074;3.788;2022-11-24T03:02:23;9.70;99.90
27226;DHT22;14732;51.074;3.788;2022-11-24T03:04:49;9.70;99.90
27226;DHT22;14732;51.074;3.788;2022-11-24T03:07:14;9.70;99.90
27226;DHT22;14732;51.074;3.788;2022-11-24T03:09:40;9.70;99.90
27226;DHT22;14732;51.074;3.788;2022-11-24T03:12:06;9.90;99.90
27226;DHT22;14732;51.074;3.788;2022-11-24T03:14:31;10.00;99.90
27226;DHT22;14732;51.074;3.788;2022-11-24T03:16:57;9.90;99.90
27226;DHT22;14732;51.074;3.788;2022-11-24T03:19:23;9.90;99.90
27226;DHT22;14732;51.074;3.788;2022-11-24T03:21:49;9.90;99.90
27226;DHT22;14732;51.074;3.788;2022-11-24T03:24:14;9.90;99.90
27226;DHT22;14732;51.074;3.788;2022-11-24T03:26:40;10.10;99.90
27226;DHT22;14732;51.074;3.788;2022-11-24T03:29:06;9.90;99.90
27226;DHT22;14732;51.074;3.788;2022-11-24T03:31:32;9.90;99.90
27226;DHT22;14732;51.074;3.788;2022-11-24T03:33:58;10.00;99.90
27226;DHT22;14732;51.074;3.788;2022-11-24T03:36:24;10.00;99.90
27226;DHT22;14732;51.074;3.788;2022-11-24T03:38:49;9.90;99.90
27226;DHT22;14732;51.074;3.788;2022-11-24T03:41:15;9.80;99.90
27226;DHT22;14732;51.074;3.788;2022-11-24T03:43:41;9.60;99.90
27226;DHT22;14732;51.074;3.788;2022-11-24T03:46:06;9.70;99.90
27226;DHT22;14732;51.074;3.788;2022-11-24T03:48:32;9.70;99.90
27226;DHT22;14732;51.074;3.788;2022-11-24T03:50:59;9.60;99.90
27226;DHT22;14732;51.074;3.788;2022-11-24T03:53:27;9.40;99.90
27226;DHT22;14732;51.074;3.788;2022-11-24T03:55:53;9.40;99.90
27226;DHT22;14732;51.074;3.788;2022-11-24T03:58:19;9.50;99.90
27226;DHT22;14732;51.074;3.788;2022-11-24T04:00:50;9.40;99.90
27226;DHT22;14732;51.074;3.788;2022-11-24T04:03:16;9.40;99.90
27226;DHT22;14732;51.074;3.788;2022-11-24T04:05:44;9.40;99.90
27226;DHT22;14732;51.074;3.788;2022-11-24T04:08:09;9.30;99.90
27226;DHT22;14732;51.074;3.788;2022-11-24T04:10:37;9.40;99.90
27226;DHT22;14732;51.074;3.788;2022-11-24T04:13:09;9.30;99.90
27226;DHT22;14732;51.074;3.788;2022-11-24T04:15:37;9.20;99.90
27226;DHT22;14732;51.074;3.788;2022-11-24T04:18:03;9.20;99.90
27226;DHT22;14732;51.074;3.788;2022-11-24T04:20:29;9.20;99.90
27226;DHT22;14732;51.074;3.788;2022-11-24T04:22:54;9.20;99.90
27226;DHT22;14732;51.074;3.788;2022-11-24T04:25:20;9.00;99.90
27226;DHT22;14732;51.074;3.788;2022-11-24T04:27:50;9.10;99.90
27226;DHT22;14732;51.074;3.788;2022-11-24T04:30:17;9.30;99.90
27226;DHT22;14732;51.074;3.788;2022-11-24T04:32:43;9.40;99.90
27226;DHT22;14732;51.074;3.788;2022-11-24T04:35:09;9.30;99.90
27226;DHT22;14732;51.074;3.788;2022-11-24T04:37:34;9.10;99.90
27226;DHT22;14732;51.074;3.788;2022-11-24T04:40:00;9.00;99.90
27226;DHT22;14732;51.074;3.788;2022-11-24T04:42:26;9.00;99.90
27226;DHT22;14732;51.074;3.788;2022-11-24T04:44:52;9.00;99.90
27226;DHT22;14732;51.074;3.788;2022-11-24T04:47:21;8.90;99.90
27226;DHT22;14732;51.074;3.788;2022-11-24T04:49:47;8.90;99.90
27226;DHT22;14732;51.074;3.788;2022-11-24T04:52:14;8.90;99.90
27226;DHT22;14732;51.074;3.788;2022-11-24T04:54:39;9.00;99.90
27226;DHT22;14732;51.074;3.788;2022-11-24T04:57:05;9.00;99.90
27226;DHT22;14732;51.074;3.788;2022-11-24T04:59:31;9.20;99.90
27226;DHT22;14732;51.074;3.788;2022-11-24T05:01:56;9.20;99.90
27226;DHT22;14732;51.074;3.788;2022-11-24T05:04:22;9.40;99.90
27226;DHT22;14732;51.074;3.788;2022-11-24T05:06:48;9.30;99.90
27226;DHT22;14732;51.074;3.788;2022-11-24T05:09:15;9.20;99.90
27226;DHT22;14732;51.074;3.788;2022-11-24T05:11:41;9.20;99.90
27226;DHT22;14732;51.074;3.788;2022-11-24T05:14:07;9.20;99.90
27226;DHT22;14732;51.074;3.788;2022-11-24T05:16:33;9.10;99.90
27226;DHT22;14732;51.074;3.788;2022-11-24T05:18:58;9.40;99.90
27226;DHT22;14732;51.074;3.788;2022-11-24T05:21:24;9.40;99.90
27226;DHT22;14732;51.074;3.788;2022-11-24T05:23:50;9.40;99.90
27226;DHT22;14732;51.074;3.788;2022-11-24T05:26:15;9.40;99.90
27226;DHT22;14732;51.074;3.788;2022-11-24T05:28:41;9.30;99.90
27226;DHT22;14732;51.074;3.788;2022-11-24T05:31:07;9.30;99.90
27226;DHT22;14732;51.074;3.788;2022-11-24T05:33:32;9.40;99.90
27226;DHT22;14732;51.074;3.788;2022-11-24T05:36:03;9.30;99.90
27226;DHT22;14732;51.074;3.788;2022-11-24T05:38:29;9.20;99.90
27226;DHT22;14732;51.074;3.788;2022-11-24T05:41:00;9.20;99.90
27226;DHT22;14732;51.074;3.788;2022-11-24T05:43:26;9.10;99.90
27226;DHT22;14732;51.074;3.788;2022-11-24T05:45:52;9.10;99.90
27226;DHT22;14732;51.074;3.788;2022-11-24T05:48:17;9.30;99.90
27226;DHT22;14732;51.074;3.788;2022-11-24T05:50:43;9.20;99.90
27226;DHT22;14732;51.074;3.788;2022-11-24T05:53:11;9.10;99.90
27226;DHT22;14732;51.074;3.788;2022-11-24T05:55:38;9.10;99.90
27226;DHT22;14732;51.074;3.788;2022-11-24T05:58:06;8.90;99.90
27226;DHT22;14732;51.074;3.788;2022-11-24T06:00:33;8.80;99.90
27226;DHT22;14732;51.074;3.788;2022-11-24T06:03:00;8.70;99.90
27226;DHT22;14732;51.074;3.788;2022-11-24T06:05:27;8.70;99.90
27226;DHT22;14732;51.074;3.788;2022-11-24T06:07:53;8.60;99.90
27226;DHT22;14732;51.074;3.788;2022-11-24T06:10:20;8.60;99.90
27226;DHT22;14732;51.074;3.788;2022-11-24T06:12:46;8.60;99.90
27226;DHT22;14732;51.074;3.788;2022-11-24T06:15:12;8.70;99.90
27226;DHT22;14732;51.074;3.788;2022-11-24T06:17:38;8.60;99.90
27226;DHT22;14732;51.074;3.788;2022-11-24T06:20:05;8.60;99.90
27226;DHT22;14732;51.074;3.788;2022-11-24T06:22:32;8.60;99.90
27226;DHT22;14732;51.074;3.788;2022-11-24T06:24:58;8.60;99.90
27226;DHT22;14732;51.074;3.788;2022-11-24T06:27:24;8.50;99.90
27226;DHT22;14732;51.074;3.788;2022-11-24T06:29:50;8.70;99.90
27226;DHT22;14732;51.074;3.788;2022-11-24T06:32:16;8.70;99.90
27226;DHT22;14732;51.074;3.788;2022-11-24T06:34:42;8.70;99.90
27226;DHT22;14732;51.074;3.788;2022-11-24T06:37:07;8.60;99.90
27226;DHT22;14732;51.074;3.788;2022-11-24T06:39:33;8.60;99.90
27226;DHT22;14732;51.074;3.788;2022-11-24T06:41:59;8.60;99.90
27226;DHT22;14732;51.074;3.788;2022-11-24T06:44:25;8.60;99.90
27226;DHT22;14732;51.074;3.788;2022-11-24T06:46:50;8.50;99.90
27226;DHT22;14732;51.074;3.788;2022-11-24T06:49:16;8.40;99.90
27226;DHT22;14732;51.074;3.788;2022-11-24T06:51:42;8.30;99.90
27226;DHT22;14732;51.074;3.788;2022-11-24T06:54:09;8.40;99.90
27226;DHT22;14732;51.074;3.788;2022-11-24T06:56:37;8.50;99.90
27226;DHT22;14732;51.074;3.788;2022-11-24T06:59:03;8.50;99.90
27226;DHT22;14732;51.074;3.788;2022-11-24T07:01:29;8.50;99.90
27226;DHT22;14732;51.074;3.788;2022-11-24T07:03:55;8.40;99.90
27226;DHT22;14732;51.074;3.788;2022-11-24T07:06:23;8.40;99.90
27226;DHT22;14732;51.074;3.788;2022-11-24T07:08:49;8.40;99.90
27226;DHT22;14732;51.074;3.788;2022-11-24T07:11:21;8.40;99.90
27226;DHT22;14732;51.074;3.788;2022-11-24T07:13:47;8.30;99.90
27226;DHT22;14732;51.074;3.788;2022-11-24T07:16:20;8.40;99.90
27226;DHT22;14732;51.074;3.788;2022-11-24T07:18:47;8.40;99.90
27226;DHT22;14732;51.074;3.788;2022-11-24T07:21:13;8.30;99.90
27226;DHT22;14732;51.074;3.788;2022-11-24T07:23:40;8.50;99.90
27226;DHT22;14732;51.074;3.788;2022-11-24T07:26:07;8.70;99.90
27226;DHT22;14732;51.074;3.788;2022-11-24T07:28:33;8.70;99.90
27226;DHT22;14732;51.074;3.788;2022-11-24T07:31:11;8.70;99.90
27226;DHT22;14732;51.074;3.788;2022-11-24T07:33:37;8.60;99.90
27226;DHT22;14732;51.074;3.788;2022-11-24T07:36:04;8.60;99.90
27226;DHT22;14732;51.074;3.788;2022-11-24T07:38:31;8.60;99.90
27226;DHT22;14732;51.074;3.788;2022-11-24T07:41:05;8.60;99.90
27226;DHT22;14732;51.074;3.788;2022-11-24T07:43:33;8.70;99.90
27226;DHT22;14732;51.074;3.788;2022-11-24T07:45:59;8.70;99.90
27226;DHT22;14732;51.074;3.788;2022-11-24T07:48:25;8.60;99.90
27226;DHT22;14732;51.074;3.788;2022-11-24T07:50:51;8.60;99.90
27226;DHT22;14732;51.074;3.788;2022-11-24T07:53:17;8.70;99.90
27226;DHT22;14732;51.074;3.788;2022-11-24T07:55:54;8.80;99.90
27226;DHT22;14732;51.074;3.788;2022-11-24T07:58:21;9.00;99.90
27226;DHT22;14732;51.074;3.788;2022-11-24T08:00:47;9.20;99.90
27226;DHT22;14732;51.074;3.788;2022-11-24T08:03:12;9.20;99.90
27226;DHT22;14732;51.074;3.788;2022-11-24T08:05:38;9.10;99.90
27226;DHT22;14732;51.074;3.788;2022-11-24T08:08:04;9.00;99.90
27226;DHT22;14732;51.074;3.788;2022-11-24T08:10:29;9.30;99.90
27226;DHT22;14732;51.074;3.788;2022-11-24T08:12:59;9.40;99.90
27226;DHT22;14732;51.074;3.788;2022-11-24T08:15:25;9.40;99.90
27226;DHT22;14732;51.074;3.788;2022-11-24T08:17:50;9.60;99.90
27226;DHT22;14732;51.074;3.788;2022-11-24T08:20:16;9.60;99.90
27226;DHT22;14732;51.074;3.788;2022-11-24T08:22:42;9.70;99.90
27226;DHT22;14732;51.074;3.788;2022-11-24T08:25:08;9.90;99.90
27226;DHT22;14732;51.074;3.788;2022-11-24T08:27:33;9.90;99.90
27226;DHT22;14732;51.074;3.788;2022-11-24T08:29:59;9.80;99.90
27226;DHT22;14732;51.074;3.788;2022-11-24T08:32:25;10.00;99.90
27226;DHT22;14732;51.074;3.788;2022-11-24T08:34:51;10.10;99.90
27226;DHT22;14732;51.074;3.788;2022-11-24T08:37:16;10.00;99.90
27226;DHT22;14732;51.074;3.788;2022-11-24T08:39:42;10.00;99.90
27226;DHT22;14732;51.074;3.788;2022-11-24T08:42:08;9.90;99.90
27226;DHT22;14732;51.074;3.788;2022-11-24T08:44:33;10.10;99.90
27226;DHT22;14732;51.074;3.788;2022-11-24T08:46:59;10.10;99.90
27226;DHT22;14732;51.074;3.788;2022-11-24T08:49:25;10.20;99.90
27226;DHT22;14732;51.074;3.788;2022-11-24T08:51:50;10.00;99.90
27226;DHT22;14732;51.074;3.788;2022-11-24T08:54:16;10.20;99.90
27226;DHT22;14732;51.074;3.788;2022-11-24T08:56:43;10.30;99.90
27226;DHT22;14732;51.074;3.788;2022-11-24T08:59:13;10.50;99.90
27226;DHT22;14732;51.074;3.788;2022-11-24T09:01:40;10.90;99.90
27226;DHT22;14732;51.074;3.788;2022-11-24T09:04:06;11.80;99.90
27226;DHT22;14732;51.074;3.788;2022-11-24T09:06:31;13.30;99.90
27226;DHT22;14732;51.074;3.788;2022-11-24T09:08:58;14.50;99.90
27226;DHT22;14732;51.074;3.788;2022-11-24T09:11:25;15.90;99.90
27226;DHT22;14732;51.074;3.788;2022-11-24T09:13:52;17.10;99.90
27226;DHT22;14732;51.074;3.788;2022-11-24T09:16:24;18.20;99.90
27226;DHT22;14732;51.074;3.788;2022-11-24T09:18:54;18.50;99.90
27226;DHT22;14732;51.074;3.788;2022-11-24T09:21:20;19.10;99.90
27226;DHT22;14732;51.074;3.788;2022-11-24T09:23:47;19.20;99.90
27226;DHT22;14732;51.074;3.788;2022-11-24T09:26:16;18.40;99.90
27226;DHT22;14732;51.074;3.788;2022-11-24T09:28:43;17.50;99.90
27226;DHT22;14732;51.074;3.788;2022-11-24T09:31:11;16.40;99.90
27226;DHT22;14732;51.074;3.788;2022-11-24T09:33:37;15.30;99.90
27226;DHT22;14732;51.074;3.788;2022-11-24T09:36:04;14.80;99.90
27226;DHT22;14732;51.074;3.788;2022-11-24T09:38:30;14.10;99.90
27226;DHT22;14732;51.074;3.788;2022-11-24T09:49:17;12.80;99.90
27226;DHT22;14732;51.074;3.788;2022-11-24T09:51:48;12.60;99.90
27226;DHT22;14732;51.074;3.788;2022-11-24T09:54:19;12.60;99.90
27226;DHT22;14732;51.074;3.788;2022-11-24T09:56:46;12.40;99.90
27226;DHT22;14732;51.074;3.788;2022-11-24T09:59:19;12.20;99.90
27226;DHT22;14732;51.074;3.788;2022-11-24T10:01:45;12.20;99.90
27226;DHT22;14732;51.074;3.788;2022-11-24T10:04:37;12.20;99.90
27226;DHT22;14732;51.074;3.788;2022-11-24T10:10:11;12.20;99.90
27226;DHT22;14732;51.074;3.788;2022-11-24T10:15:21;12.20;99.90
27226;DHT22;14732;51.074;3.788;2022-11-24T10:23:34;12.10;99.90
27226;DHT22;14732;51.074;3.788;2022-11-24T10:26:15;11.90;99.90
27226;DHT22;14732;51.074;3.788;2022-11-24T10:28:49;11.80;99.90
27226;DHT22;14732;51.074;3.788;2022-11-24T10:33:47;11.90;99.90
27226;DHT22;14732;51.074;3.788;2022-11-24T10:36:19;11.80;99.90
27226;DHT22;14732;51.074;3.788;2022-11-24T10:39:02;11.70;99.90
27226;DHT22;14732;51.074;3.788;2022-11-24T10:41:41;11.90;99.90
27226;DHT22;14732;51.074;3.788;2022-11-24T10:44:14;11.90;99.90
27226;DHT22;14732;51.074;3.788;2022-11-24T10:46:40;12.10;99.90
27226;DHT22;14732;51.074;3.788;2022-11-24T10:49:06;12.30;99.90
27226;DHT22;14732;51.074;3.788;2022-11-24T10:52:03;12.30;99.90
27226;DHT22;14732;51.074;3.788;2022-11-24T10:54:30;12.40;99.90
27226;DHT22;14732;51.074;3.788;2022-11-24T10:56:57;12.20;99.90
27226;DHT22;14732;51.074;3.788;2022-11-24T10:59:35;12.20;99.90
27226;DHT22;14732;51.074;3.788;2022-11-24T11:02:25;12.30;99.90
27226;DHT22;14732;51.074;3.788;2022-11-24T11:04:48;12.20;99.90
27226;DHT22;14732;51.074;3.788;2022-11-24T11:07:19;12.30;99.90
27226;DHT22;14732;51.074;3.788;2022-11-24T11:09:47;12.50;99.90
27226;DHT22;14732;51.074;3.788;2022-11-24T11:12:21;12.50;99.90
27226;DHT22;14732;51.074;3.788;2022-11-24T11:14:48;12.50;99.90
27226;DHT22;14732;51.074;3.788;2022-11-24T11:17:41;12.60;99.90
27226;DHT22;14732;51.074;3.788;2022-11-24T11:20:31;12.60;99.90
27226;DHT22;14732;51.074;3.788;2022-11-24T11:23:12;12.50;99.90
27226;DHT22;14732;51.074;3.788;2022-11-24T11:25:39;12.60;99.90
27226;DHT22;14732;51.074;3.788;2022-11-24T11:28:27;12.40;99.90
27226;DHT22;14732;51.074;3.788;2022-11-24T11:31:18;12.40;99.90
27226;DHT22;14732;51.074;3.788;2022-11-24T11:36:20;12.60;99.90
27226;DHT22;14732;51.074;3.788;2022-11-24T11:38:46;12.60;99.90
27226;DHT22;14732;51.074;3.788;2022-11-24T11:41:19;12.50;99.90
27226;DHT22;14732;51.074;3.788;2022-11-24T11:43:51;12.40;99.90
27226;DHT22;14732;51.074;3.788;2022-11-24T11:46:19;12.70;99.90
27226;DHT22;14732;51.074;3.788;2022-11-24T11:48:46;12.50;99.90
27226;DHT22;14732;51.074;3.788;2022-11-24T11:54:08;12.90;99.90
27226;DHT22;14732;51.074;3.788;2022-11-24T11:56:47;12.80;99.90
27226;DHT22;14732;51.074;3.788;2022-11-24T11:59:54;12.60;99.90
27226;DHT22;14732;51.074;3.788;2022-11-24T12:05:23;12.70;99.90
27226;DHT22;14732;51.074;3.788;2022-11-24T12:08:03;12.80;99.90
27226;DHT22;14732;51.074;3.788;2022-11-24T12:15:56;12.90;99.90
27226;DHT22;14732;51.074;3.788;2022-11-24T12:39:39;13.20;99.90
27226;DHT22;14732;51.074;3.788;2022-11-24T12:50:20;13.30;99.90
27226;DHT22;14732;51.074;3.788;2022-11-24T12:52:53;13.40;99.90
27226;DHT22;14732;51.074;3.788;2022-11-24T12:55:21;13.20;99.90
27226;DHT22;14732;51.074;3.788;2022-11-24T12:58:09;13.20;99.90
27226;DHT22;14732;51.074;3.788;2022-11-24T13:03:36;13.30;99.90
27226;DHT22;14732;51.074;3.788;2022-11-24T13:06:19;13.40;99.90
27226;DHT22;14732;51.074;3.788;2022-11-24T13:08:47;13.30;99.90
27226;DHT22;14732;51.074;3.788;2022-11-24T13:13:59;13.20;99.90
27226;DHT22;14732;51.074;3.788;2022-11-24T13:16:25;13.20;99.90
27226;DHT22;14732;51.074;3.788;2022-11-24T13:18:54;13.20;99.90
27226;DHT22;14732;51.074;3.788;2022-11-24T13:21:46;13.30;99.90
27226;DHT22;14732;51.074;3.788;2022-11-24T13:26:46;13.30;99.90
27226;DHT22;14732;51.074;3.788;2022-11-24T13:39:58;13.10;99.90
27226;DHT22;14732;51.074;3.788;2022-11-24T13:42:26;13.00;99.90
27226;DHT22;14732;51.074;3.788;2022-11-24T13:47:44;13.00;99.90
27226;DHT22;14732;51.074;3.788;2022-11-24T13:55:40;12.80;99.90
27226;DHT22;14732;51.074;3.788;2022-11-24T13:58:33;12.80;99.90
27226;DHT22;14732;51.074;3.788;2022-11-24T14:04:00;12.80;99.90
27226;DHT22;14732;51.074;3.788;2022-11-24T14:06:42;12.80;99.90
27226;DHT22;14732;51.074;3.788;2022-11-24T14:12:00;12.80;99.90
27226;DHT22;14732;51.074;3.788;2022-11-24T14:14:27;12.80;99.90
27226;DHT22;14732;51.074;3.788;2022-11-24T14:17:26;12.80;99.90
27226;DHT22;14732;51.074;3.788;2022-11-24T14:19:56;12.80;99.90
27226;DHT22;14732;51.074;3.788;2022-11-24T14:22:35;12.80;99.90
27226;DHT22;14732;51.074;3.788;2022-11-24T14:25:03;12.80;99.90
27226;DHT22;14732;51.074;3.788;2022-11-24T14:27:35;12.80;99.90
27226;DHT22;14732;51.074;3.788;2022-11-24T14:30:18;12.60;99.90
27226;DHT22;14732;51.074;3.788;2022-11-24T14:32:55;12.50;99.90
27226;DHT22;14732;51.074;3.788;2022-11-24T14:35:29;12.40;99.90
27226;DHT22;14732;51.074;3.788;2022-11-24T14:37:55;12.50;99.90
27226;DHT22;14732;51.074;3.788;2022-11-24T14:40:44;12.50;99.90
27226;DHT22;14732;51.074;3.788;2022-11-24T14:43:31;12.50;99.90
27226;DHT22;14732;51.074;3.788;2022-11-24T14:46:06;12.40;99.90
27226;DHT22;14732;51.074;3.788;2022-11-24T14:48:46;12.40;99.90
27226;DHT22;14732;51.074;3.788;2022-11-24T14:51:20;12.20;99.90
27226;DHT22;14732;51.074;3.788;2022-11-24T14:53:49;12.20;99.90
27226;DHT22;14732;51.074;3.788;2022-11-24T14:58:59;12.00;99.90
27226;DHT22;14732;51.074;3.788;2022-11-24T15:04:23;12.10;99.90
27226;DHT22;14732;51.074;3.788;2022-11-24T15:10:00;12.00;99.90
27226;DHT22;14732;51.074;3.788;2022-11-24T15:12:27;12.00;99.90
27226;DHT22;14732;51.074;3.788;2022-11-24T15:15:01;12.00;99.90
27226;DHT22;14732;51.074;3.788;2022-11-24T15:17:29;12.00;99.90
27226;DHT22;14732;51.074;3.788;2022-11-24T15:20:02;12.00;99.90
27226;DHT22;14732;51.074;3.788;2022-11-24T15:22:34;12.10;99.90
27226;DHT22;14732;51.074;3.788;2022-11-24T15:25:00;12.20;99.90
27226;DHT22;14732;51.074;3.788;2022-11-24T15:27:26;12.20;99.90
27226;DHT22;14732;51.074;3.788;2022-11-24T15:29:52;12.10;99.90
27226;DHT22;14732;51.074;3.788;2022-11-24T15:32:18;12.10;99.90
27226;DHT22;14732;51.074;3.788;2022-11-24T15:34:43;12.00;99.90
27226;DHT22;14732;51.074;3.788;2022-11-24T15:37:09;11.90;99.90
27226;DHT22;14732;51.074;3.788;2022-11-24T15:39:35;12.00;99.90
27226;DHT22;14732;51.074;3.788;2022-11-24T15:42:00;12.00;99.90
27226;DHT22;14732;51.074;3.788;2022-11-24T15:44:26;12.10;99.90
27226;DHT22;14732;51.074;3.788;2022-11-24T15:46:52;12.00;99.90
27226;DHT22;14732;51.074;3.788;2022-11-24T15:49:20;12.00;99.90
27226;DHT22;14732;51.074;3.788;2022-11-24T15:51:46;11.80;99.90
27226;DHT22;14732;51.074;3.788;2022-11-24T15:54:14;11.90;99.90
27226;DHT22;14732;51.074;3.788;2022-11-24T15:56:40;11.80;99.90
27226;DHT22;14732;51.074;3.788;2022-11-24T15:59:12;11.60;99.90
27226;DHT22;14732;51.074;3.788;2022-11-24T16:01:40;11.50;99.90
27226;DHT22;14732;51.074;3.788;2022-11-24T16:04:07;11.40;99.90
27226;DHT22;14732;51.074;3.788;2022-11-24T16:06:32;11.60;99.90
27226;DHT22;14732;51.074;3.788;2022-11-24T16:08:58;11.70;99.90
27226;DHT22;14732;51.074;3.788;2022-11-24T16:11:24;11.50;99.90
27226;DHT22;14732;51.074;3.788;2022-11-24T16:13:50;11.40;99.90
27226;DHT22;14732;51.074;3.788;2022-11-24T16:16:16;11.50;99.90
27226;DHT22;14732;51.074;3.788;2022-11-24T16:18:41;11.50;99.90
27226;DHT22;14732;51.074;3.788;2022-11-24T16:21:10;11.60;99.90
27226;DHT22;14732;51.074;3.788;2022-11-24T16:23:35;11.60;99.90
27226;DHT22;14732;51.074;3.788;2022-11-24T16:26:03;11.50;99.90
27226;DHT22;14732;51.074;3.788;2022-11-24T16:28:29;11.50;99.90
27226;DHT22;14732;51.074;3.788;2022-11-24T16:30:55;11.50;99.90
27226;DHT22;14732;51.074;3.788;2022-11-24T16:33:20;11.60;99.90
27226;DHT22;14732;51.074;3.788;2022-11-24T16:35:46;11.50;99.90
27226;DHT22;14732;51.074;3.788;2022-11-24T16:38:17;11.50;99.90
27226;DHT22;14732;51.074;3.788;2022-11-24T16:40:43;11.40;99.90
27226;DHT22;14732;51.074;3.788;2022-11-24T16:43:09;11.30;99.90
27226;DHT22;14732;51.074;3.788;2022-11-24T16:45:34;11.30;99.90
27226;DHT22;14732;51.074;3.788;2022-11-24T16:48:00;11.30;99.90
27226;DHT22;14732;51.074;3.788;2022-11-24T16:50:26;11.20;99.90
27226;DHT22;14732;51.074;3.788;2022-11-24T16:52:51;11.30;99.90
27226;DHT22;14732;51.074;3.788;2022-11-24T16:55:17;11.20;99.90
27226;DHT22;14732;51.074;3.788;2022-11-24T16:57:43;11.30;99.90
27226;DHT22;14732;51.074;3.788;2022-11-24T17:00:09;11.30;99.90
27226;DHT22;14732;51.074;3.788;2022-11-24T17:02:35;11.30;99.90
27226;DHT22;14732;51.074;3.788;2022-11-24T17:05:01;11.10;99.90
27226;DHT22;14732;51.074;3.788;2022-11-24T17:07:27;11.10;99.90
27226;DHT22;14732;51.074;3.788;2022-11-24T17:09:52;11.10;99.90
27226;DHT22;14732;51.074;3.788;2022-11-24T17:12:18;11.10;99.90
27226;DHT22;14732;51.074;3.788;2022-11-24T17:14:43;11.00;99.90
27226;DHT22;14732;51.074;3.788;2022-11-24T17:17:09;11.00;99.90
27226;DHT22;14732;51.074;3.788;2022-11-24T17:19:35;11.00;99.90
27226;DHT22;14732;51.074;3.788;2022-11-24T17:22:01;10.90;99.90
27226;DHT22;14732;51.074;3.788;2022-11-24T17:24:27;10.90;99.90
27226;DHT22;14732;51.074;3.788;2022-11-24T17:26:53;11.00;99.90
27226;DHT22;14732;51.074;3.788;2022-11-24T17:29:19;11.10;99.90
27226;DHT22;14732;51.074;3.788;2022-11-24T17:31:44;10.90;99.90